createdAt,value
2018-12-23T00:00:43.871Z,3.37
2018-12-23T00:03:11.548Z,2.60
2018-12-23T00:05:39.069Z,3.30
2018-12-23T00:08:06.566Z,2.67
2018-12-23T00:10:34.121Z,2.70
2018-12-23T00:13:01.617Z,2.60
2018-12-23T00:15:29.133Z,2.57
2018-12-23T00:17:56.627Z,2.50
2018-12-23T00:20:24.153Z,2.40
2018-12-23T00:22:51.649Z,2.60
2018-12-23T00:25:19.167Z,2.63
2018-12-23T00:27:46.664Z,2.60
2018-12-23T00:30:14.189Z,2.57
2018-12-23T00:32:41.687Z,2.67
2018-12-23T00:35:09.205Z,2.63
2018-12-23T00:37:36.693Z,2.70
2018-12-23T00:40:05.761Z,2.57
2018-12-23T00:42:33.446Z,3.03
2018-12-23T00:45:01.012Z,2.57
2018-12-23T00:47:28.512Z,2.53
2018-12-23T00:49:56.345Z,1.93
2018-12-23T00:52:23.838Z,2.43
2018-12-23T00:54:51.552Z,2.30
2018-12-23T00:57:19.380Z,2.30
2018-12-23T00:59:47.093Z,2.50
2018-12-23T01:02:14.609Z,2.70
2018-12-23T01:04:42.106Z,3.33
2018-12-23T01:07:09.777Z,2.80
2018-12-23T01:09:37.271Z,3.03
2018-12-23T01:12:05.026Z,3.40
2018-12-23T01:14:32.599Z,3.20
2018-12-23T01:17:00.122Z,2.30
2018-12-23T01:19:27.617Z,2.20
2018-12-23T01:21:55.141Z,2.40
2018-12-23T01:24:22.640Z,2.23
2018-12-23T01:26:50.159Z,1.73
2018-12-23T01:29:17.659Z,3.27
2018-12-23T01:31:45.180Z,2.43
2018-12-23T01:34:12.906Z,2.37
2018-12-23T01:36:40.425Z,2.27
2018-12-23T01:39:07.922Z,2.80
2018-12-23T01:41:35.449Z,2.97
2018-12-23T01:44:03.021Z,2.47
2018-12-23T01:46:30.541Z,2.30
2018-12-23T01:48:58.038Z,2.80
2018-12-23T01:51:25.528Z,1.70
2018-12-23T01:53:53.266Z,2.60
2018-12-23T01:56:20.757Z,3.20
2018-12-23T01:58:48.279Z,2.40
2018-12-23T02:01:15.785Z,2.57
2018-12-23T02:03:43.307Z,2.20
2018-12-23T02:06:10.805Z,2.10
2018-12-23T02:08:38.325Z,2.53
2018-12-23T02:11:05.829Z,2.83
2018-12-23T02:13:33.345Z,2.27
2018-12-23T02:16:01.115Z,1.77
2018-12-23T02:18:28.638Z,1.70
2018-12-23T02:20:56.130Z,2.37
2018-12-23T02:23:23.729Z,2.70
2018-12-23T02:25:51.216Z,1.97
2018-12-23T02:28:18.728Z,1.80
2018-12-23T02:30:46.217Z,2.20
2018-12-23T02:33:13.732Z,2.83
2018-12-23T02:35:41.222Z,1.70
2018-12-23T02:38:08.708Z,2.33
2018-12-23T02:40:36.235Z,1.83
2018-12-23T02:43:03.867Z,2.30
2018-12-23T02:45:31.381Z,2.60
2018-12-23T02:47:58.879Z,2.30
2018-12-23T02:50:26.393Z,2.50
2018-12-23T02:52:53.889Z,2.33
2018-12-23T02:55:21.409Z,1.90
2018-12-23T02:57:48.905Z,2.20
2018-12-23T03:00:16.424Z,2.20
2018-12-23T03:02:43.922Z,2.30
2018-12-23T03:05:11.438Z,3.03
2018-12-23T03:07:38.928Z,1.70
2018-12-23T03:10:06.995Z,2.40
2018-12-23T03:12:34.740Z,1.83
2018-12-23T03:15:02.256Z,2.20
2018-12-23T03:17:29.821Z,2.10
2018-12-23T03:19:57.345Z,2.97
2018-12-23T03:22:24.870Z,2.33
2018-12-23T03:24:52.392Z,1.70
2018-12-23T03:27:19.893Z,1.70
2018-12-23T03:29:47.393Z,1.90
2018-12-23T03:32:15.011Z,2.40
2018-12-23T03:34:42.594Z,2.00
2018-12-23T03:37:10.114Z,1.33
2018-12-23T03:39:37.714Z,1.97
2018-12-23T03:42:05.405Z,2.00
2018-12-23T03:44:32.920Z,3.87
2018-12-23T03:47:00.451Z,2.27
2018-12-23T03:49:28.199Z,1.90
2018-12-23T03:51:55.721Z,1.67
2018-12-23T03:54:23.213Z,1.93
2018-12-23T03:56:50.724Z,2.50
2018-12-23T03:59:18.217Z,2.20
2018-12-23T04:01:45.732Z,2.70
2018-12-23T04:04:13.233Z,2.50
2018-12-23T04:06:40.860Z,2.50
2018-12-23T04:09:08.390Z,2.23
2018-12-23T04:11:35.904Z,1.57
2018-12-23T04:14:03.466Z,2.23
2018-12-23T04:16:31.861Z,2.27
2018-12-23T04:18:59.357Z,2.60
2018-12-23T04:21:26.957Z,1.70
2018-12-23T04:23:54.458Z,1.90
2018-12-23T04:26:22.261Z,2.00
2018-12-23T04:28:49.786Z,2.33
2018-12-23T04:31:17.286Z,2.20
2018-12-23T04:33:44.806Z,1.60
2018-12-23T04:36:12.315Z,1.90
2018-12-23T04:38:39.848Z,3.20
2018-12-23T04:41:07.345Z,2.30
2018-12-23T04:43:34.982Z,2.33
2018-12-23T04:46:02.474Z,3.10
2018-12-23T04:48:29.999Z,2.47
2018-12-23T04:50:57.570Z,2.50
2018-12-23T04:53:25.089Z,2.20
2018-12-23T04:55:52.577Z,2.37
2018-12-23T04:58:20.087Z,2.00
2018-12-23T05:00:47.583Z,1.80
2018-12-23T05:03:15.103Z,2.80
2018-12-23T05:05:42.670Z,2.30
2018-12-23T05:08:10.205Z,2.37
2018-12-23T05:10:37.706Z,2.27
2018-12-23T05:13:05.219Z,1.40
2018-12-23T05:15:32.742Z,2.13
2018-12-23T05:18:00.232Z,2.27
2018-12-23T05:20:27.745Z,2.43
2018-12-23T05:22:55.237Z,2.90
2018-12-23T05:25:22.756Z,2.00
2018-12-23T05:27:50.258Z,2.67
2018-12-23T05:30:18.026Z,1.80
2018-12-23T05:32:45.874Z,2.60
2018-12-23T05:35:13.961Z,2.63
2018-12-23T05:37:41.457Z,1.70
2018-12-23T05:40:08.974Z,2.10
2018-12-23T05:42:36.473Z,2.27
2018-12-23T05:45:04.434Z,2.27
2018-12-23T05:47:31.925Z,2.07
2018-12-23T05:49:59.706Z,2.57
2018-12-23T05:52:27.217Z,2.70
2018-12-23T05:54:54.761Z,2.10
2018-12-23T05:57:22.431Z,2.10
2018-12-23T05:59:49.954Z,1.73
2018-12-23T06:02:17.477Z,2.83
2018-12-23T06:04:44.973Z,2.13
2018-12-23T06:07:12.513Z,1.70
2018-12-23T06:09:40.006Z,2.60
2018-12-23T06:12:07.621Z,2.40
2018-12-23T06:14:35.216Z,1.83
2018-12-23T06:17:02.704Z,2.13
2018-12-23T06:19:30.227Z,2.57
2018-12-23T06:21:57.725Z,2.43
2018-12-23T06:24:25.988Z,2.37
2018-12-23T06:26:53.484Z,2.27
2018-12-23T06:29:20.969Z,1.90
2018-12-23T06:31:48.690Z,2.43
2018-12-23T06:34:16.246Z,2.10
2018-12-23T06:36:43.831Z,2.20
2018-12-23T06:39:11.325Z,1.90
2018-12-23T06:41:38.895Z,2.30
2018-12-23T06:44:06.680Z,2.27
2018-12-23T06:46:34.222Z,1.90
2018-12-23T06:49:01.708Z,2.17
2018-12-23T06:51:29.250Z,2.27
2018-12-23T06:53:56.741Z,1.67
2018-12-23T06:56:24.229Z,2.70
2018-12-23T06:58:51.757Z,2.20
2018-12-23T07:01:19.247Z,2.57
2018-12-23T07:03:46.774Z,2.23
2018-12-23T07:06:14.266Z,2.03
2018-12-23T07:08:41.797Z,2.20
2018-12-23T07:11:09.286Z,1.83
2018-12-23T07:13:36.847Z,1.77
2018-12-23T07:16:04.413Z,2.17
2018-12-23T07:18:31.945Z,2.60
2018-12-23T07:20:59.440Z,2.80
2018-12-23T07:23:26.965Z,2.80
2018-12-23T07:25:54.458Z,2.27
2018-12-23T07:28:21.990Z,2.90
2018-12-23T07:30:49.745Z,2.50
2018-12-23T07:33:17.285Z,3.60
2018-12-23T07:35:44.776Z,6.27
2018-12-23T07:38:12.273Z,6.17
2018-12-23T07:40:39.800Z,3.30
2018-12-23T07:43:07.333Z,3.17
2018-12-23T07:45:34.821Z,2.33
2018-12-23T07:48:02.350Z,1.80
2018-12-23T07:50:30.092Z,1.60
2018-12-23T07:52:58.525Z,2.50
2018-12-23T07:55:26.009Z,2.73
2018-12-23T07:57:53.544Z,2.43
2018-12-23T08:00:21.032Z,2.50
2018-12-23T08:02:48.548Z,2.37
2018-12-23T08:05:16.072Z,2.67
2018-12-23T08:07:43.561Z,2.40
2018-12-23T08:10:11.097Z,3.20
2018-12-23T08:12:38.632Z,2.47
2018-12-23T08:15:06.296Z,1.90
2018-12-23T08:17:33.786Z,2.30
2018-12-23T08:20:01.323Z,2.50
2018-12-23T08:22:28.816Z,2.33
2018-12-23T08:24:57.250Z,2.50
2018-12-23T08:27:25.288Z,1.73
2018-12-23T08:29:52.776Z,2.00
2018-12-23T08:32:20.304Z,2.47
2018-12-23T08:34:47.792Z,2.10
2018-12-23T08:37:15.326Z,2.00
2018-12-23T08:39:42.829Z,2.70
2018-12-23T08:42:10.372Z,2.40
2018-12-23T08:44:37.865Z,1.87
2018-12-23T08:47:05.392Z,2.60
2018-12-23T08:49:32.887Z,1.93
2018-12-23T08:52:00.431Z,2.17
2018-12-23T08:54:27.934Z,3.80
2018-12-23T08:56:55.465Z,2.90
2018-12-23T08:59:22.999Z,10.23
2018-12-23T09:01:50.772Z,2.90
2018-12-23T09:04:18.267Z,3.17
2018-12-23T09:06:45.757Z,3.60
2018-12-23T09:09:13.281Z,2.30
2018-12-23T09:11:42.979Z,2.90
2018-12-23T09:14:10.325Z,5.10
2018-12-23T09:16:37.816Z,3.27
2018-12-23T09:19:05.306Z,2.93
2018-12-23T09:21:32.854Z,2.50
2018-12-23T09:24:00.341Z,3.43
2018-12-23T09:26:27.838Z,2.57
2018-12-23T09:28:55.369Z,2.60
2018-12-23T09:31:23.415Z,2.30
2018-12-23T09:33:51.287Z,2.60
2018-12-23T09:36:18.813Z,3.10
2018-12-23T09:38:46.311Z,2.87
2018-12-23T09:41:13.845Z,2.30
2018-12-23T09:43:41.330Z,2.00
2018-12-23T09:46:09.369Z,2.40
2018-12-23T09:48:36.870Z,2.70
2018-12-23T09:51:04.408Z,4.20
2018-12-23T09:53:31.897Z,2.47
2018-12-23T09:55:59.391Z,2.93
2018-12-23T09:58:26.929Z,3.10
2018-12-23T10:00:54.428Z,3.27
2018-12-23T10:03:21.960Z,3.03
2018-12-23T10:05:49.453Z,3.20
2018-12-23T10:08:16.990Z,3.90
2018-12-23T10:10:44.476Z,3.30
2018-12-23T10:13:12.001Z,2.83
2018-12-23T10:15:39.493Z,3.10
2018-12-23T10:18:07.021Z,3.50
2018-12-23T10:20:34.583Z,3.50
2018-12-23T10:23:02.117Z,3.20
2018-12-23T10:25:29.709Z,3.97
2018-12-23T10:27:57.265Z,3.40
2018-12-23T10:30:24.828Z,2.63
2018-12-23T10:32:52.360Z,3.97
2018-12-23T10:35:20.394Z,3.23
2018-12-23T10:37:47.884Z,4.67
2018-12-23T10:40:15.409Z,3.20
2018-12-23T10:42:42.915Z,3.53
2018-12-23T10:45:10.684Z,6.10
2018-12-23T10:47:38.181Z,4.33
2018-12-23T10:50:06.061Z,4.50
2018-12-23T10:52:33.552Z,4.17
2018-12-23T10:55:01.281Z,4.03
2018-12-23T10:57:28.772Z,3.37
2018-12-23T10:59:56.301Z,4.10
2018-12-23T11:02:23.792Z,4.13
2018-12-23T11:04:51.333Z,4.20
2018-12-23T11:07:18.823Z,3.67
2018-12-23T11:09:47.194Z,3.13
2018-12-23T11:12:14.687Z,4.87
2018-12-23T11:14:42.229Z,7.43
2018-12-23T11:17:09.721Z,4.37
2018-12-23T11:19:37.213Z,3.60
2018-12-23T11:22:04.754Z,3.90
2018-12-23T11:24:32.361Z,3.83
2018-12-23T11:26:59.906Z,4.00
2018-12-23T11:29:27.446Z,3.53
2018-12-23T11:31:54.936Z,6.73
2018-12-23T11:34:22.677Z,7.60
2018-12-23T11:36:50.302Z,5.37
2018-12-23T11:39:17.793Z,4.53
2018-12-23T11:41:45.352Z,3.77
2018-12-23T11:44:12.845Z,4.10
2018-12-23T11:46:40.383Z,3.73
2018-12-23T11:49:07.873Z,6.10
2018-12-23T11:51:35.404Z,4.30
2018-12-23T11:54:02.902Z,4.13
2018-12-23T11:56:30.668Z,4.30
2018-12-23T11:58:58.160Z,4.33
2018-12-23T12:01:25.789Z,4.13
2018-12-23T12:03:53.284Z,4.00
2018-12-23T12:06:21.017Z,4.00
2018-12-23T12:08:48.597Z,3.83
2018-12-23T12:11:16.219Z,4.27
2018-12-23T12:13:43.753Z,5.80
2018-12-23T12:16:11.255Z,5.00
2018-12-23T12:18:38.785Z,6.30
2018-12-23T12:21:06.281Z,4.90
2018-12-23T12:23:33.781Z,4.93
2018-12-23T12:26:01.317Z,4.57
2018-12-23T12:28:28.805Z,4.40
2018-12-23T12:30:56.353Z,5.20
2018-12-23T12:33:23.848Z,4.00
2018-12-23T12:35:51.377Z,4.20
2018-12-23T12:38:18.921Z,56.83
2018-12-23T12:40:46.713Z,57.47
2018-12-23T12:43:14.262Z,19.53
2018-12-23T12:45:41.853Z,14.00
2018-12-23T12:48:09.688Z,7.67
2018-12-23T12:50:37.309Z,6.80
2018-12-23T12:53:04.810Z,4.90
2018-12-23T12:55:32.568Z,5.13
2018-12-23T12:58:00.712Z,4.23
2018-12-23T13:00:28.209Z,3.73
2018-12-23T13:02:55.744Z,5.40
2018-12-23T13:05:23.246Z,4.30
2018-12-23T13:07:50.862Z,5.20
2018-12-23T13:10:18.373Z,6.13
2018-12-23T13:12:46.181Z,13.80
2018-12-23T13:15:13.675Z,14.87
2018-12-23T13:18:12.322Z,34.30
2018-12-23T13:20:41.006Z,8.97
2018-12-23T13:23:09.622Z,5.80
2018-12-23T13:25:38.344Z,5.40
2018-12-23T13:28:07.091Z,5.93
2018-12-23T13:30:35.774Z,5.73
2018-12-23T13:33:04.491Z,6.20
2018-12-23T13:35:33.177Z,5.73
2018-12-23T13:38:01.827Z,6.97
2018-12-23T13:40:36.410Z,6.20
2018-12-23T13:43:17.117Z,7.87
2018-12-23T13:45:51.801Z,4.47
2018-12-23T13:48:38.670Z,4.00
2018-12-23T13:51:18.849Z,5.90
2018-12-23T13:54:06.808Z,4.73
2018-12-23T13:56:41.451Z,3.97
2018-12-23T13:59:16.253Z,4.10
2018-12-23T14:02:14.469Z,3.93
2018-12-23T14:04:55.178Z,3.57
2018-12-23T14:07:53.156Z,3.90
2018-12-23T14:10:39.830Z,4.67
2018-12-23T14:13:08.478Z,7.40
2018-12-23T14:15:37.430Z,14.97
2018-12-23T14:18:06.075Z,10.37
2018-12-23T14:20:34.762Z,5.97
2018-12-23T14:23:03.322Z,5.90
2018-12-23T14:25:31.994Z,5.37
2018-12-23T14:28:00.569Z,5.70
2018-12-23T14:30:29.250Z,5.47
2018-12-23T14:32:57.891Z,4.23
2018-12-23T14:35:26.576Z,3.43
2018-12-23T14:37:55.263Z,4.37
2018-12-23T14:40:23.913Z,3.80
2018-12-23T14:42:52.862Z,3.87
2018-12-23T14:45:21.503Z,3.53
2018-12-23T14:47:50.186Z,4.40
2018-12-23T14:50:18.826Z,4.80
2018-12-23T14:52:47.576Z,2.83
2018-12-23T14:55:16.163Z,4.43
2018-12-23T14:57:44.806Z,4.20
2018-12-23T15:00:13.495Z,3.30
2018-12-23T15:02:42.142Z,4.17
2018-12-23T15:05:10.807Z,3.40
2018-12-23T15:07:39.447Z,3.10
2018-12-23T15:10:09.454Z,4.27
2018-12-23T15:12:38.101Z,3.47
2018-12-23T15:15:06.787Z,9.63
2018-12-23T15:17:35.431Z,4.20
2018-12-23T15:20:04.302Z,5.13
2018-12-23T15:22:32.866Z,4.30
2018-12-23T15:25:01.587Z,3.40
2018-12-23T15:27:30.235Z,2.80
2018-12-23T15:29:58.986Z,4.73
2018-12-23T15:32:27.647Z,4.03
2018-12-23T15:34:56.826Z,3.33
2018-12-23T15:37:25.461Z,3.67
2018-12-23T15:39:54.096Z,3.43
2018-12-23T15:42:22.690Z,3.70
2018-12-23T15:44:51.358Z,2.87
2018-12-23T15:47:20.606Z,4.67
2018-12-23T15:49:49.278Z,3.40
2018-12-23T15:52:17.988Z,3.33
2018-12-23T15:54:46.677Z,3.80
2018-12-23T15:57:15.306Z,3.40
2018-12-23T15:59:43.968Z,3.80
2018-12-23T16:02:12.615Z,2.80
2018-12-23T16:04:41.287Z,2.93
2018-12-23T16:07:09.948Z,2.90
2018-12-23T16:09:38.903Z,2.70
2018-12-23T16:12:08.726Z,7.50
2018-12-23T16:14:37.399Z,8.23
2018-12-23T16:17:06.038Z,2.80
2018-12-23T16:19:34.714Z,3.20
2018-12-23T16:22:03.452Z,3.10
2018-12-23T16:24:32.163Z,3.77
2018-12-23T16:27:01.325Z,3.60
2018-12-23T16:29:30.034Z,3.87
2018-12-23T16:31:58.687Z,3.67
2018-12-23T16:34:27.342Z,9.27
2018-12-23T16:36:56.027Z,9.07
2018-12-23T16:39:24.674Z,5.90
2018-12-23T16:41:53.342Z,4.80
2018-12-23T16:44:21.981Z,4.60
2018-12-23T16:46:50.566Z,4.20
2018-12-23T16:49:19.134Z,3.83
2018-12-23T16:51:47.813Z,7.17
2018-12-23T16:54:18.003Z,12.60
2018-12-23T16:56:46.674Z,16.70
2018-12-23T16:59:15.320Z,13.97
2018-12-23T17:01:43.991Z,8.70
2018-12-23T17:04:12.561Z,6.17
2018-12-23T17:06:41.302Z,4.80
2018-12-23T17:09:09.992Z,4.77
2018-12-23T17:11:38.618Z,4.57
2018-12-23T17:14:07.182Z,4.10
2018-12-23T17:16:35.928Z,4.90
2018-12-23T17:19:04.589Z,5.30
2018-12-23T17:21:33.250Z,4.47
2018-12-23T17:24:01.807Z,5.60
2018-12-23T17:26:30.532Z,7.07
2018-12-23T17:28:59.239Z,5.63
2018-12-23T17:31:27.814Z,4.27
2018-12-23T17:33:56.483Z,7.27
2018-12-23T17:36:25.042Z,6.80
2018-12-23T17:38:53.710Z,8.23
2018-12-23T17:41:22.273Z,7.17
2018-12-23T17:43:50.970Z,10.83
2018-12-23T17:46:19.611Z,7.43
2018-12-23T17:48:48.796Z,9.60
2018-12-23T17:51:17.547Z,9.27
2018-12-23T17:53:46.267Z,11.40
2018-12-23T17:56:14.913Z,10.10
2018-12-23T17:58:43.558Z,8.90
2018-12-23T18:01:12.243Z,7.53
2018-12-23T18:03:40.931Z,8.30
2018-12-23T18:06:09.618Z,8.43
2018-12-23T18:08:38.302Z,8.50
2018-12-23T18:11:06.950Z,7.97
2018-12-23T18:13:35.733Z,8.30
2018-12-23T18:16:04.414Z,10.03
2018-12-23T18:18:33.014Z,8.90
2018-12-23T18:21:01.635Z,14.10
2018-12-23T18:23:30.283Z,10.00
2018-12-23T18:25:58.967Z,9.33
2018-12-23T18:28:27.655Z,8.83
2018-12-23T18:30:56.308Z,8.40
2018-12-23T18:33:25.004Z,8.73
2018-12-23T18:35:53.647Z,7.77
2018-12-23T18:38:22.206Z,7.40
2018-12-23T18:40:50.814Z,8.73
2018-12-23T18:43:19.454Z,8.17
2018-12-23T18:45:48.147Z,7.50
2018-12-23T18:48:17.081Z,8.27
2018-12-23T18:50:45.700Z,8.07
2018-12-23T18:53:14.379Z,8.27
2018-12-23T18:55:43.091Z,7.80
2018-12-23T18:58:12.331Z,9.37
2018-12-23T19:00:42.846Z,11.00
2018-12-23T19:03:11.481Z,14.30
2018-12-23T19:05:40.077Z,11.10
2018-12-23T19:08:08.645Z,10.00
2018-12-23T19:10:46.428Z,10.40
2018-12-23T19:13:47.742Z,9.23
2018-12-23T19:16:28.290Z,9.80
2018-12-23T19:19:00.067Z,11.57
2018-12-23T19:21:34.767Z,10.13
2018-12-23T19:24:27.034Z,10.20
2018-12-23T19:27:16.674Z,11.03
2018-12-23T19:30:03.283Z,10.37
2018-12-23T19:32:37.774Z,10.13
2018-12-23T19:35:30.787Z,10.50
2018-12-23T19:38:31.362Z,10.17
2018-12-23T19:41:39.310Z,9.57
2018-12-23T19:44:26.250Z,10.27
2018-12-23T19:47:27.070Z,9.00
2018-12-23T19:50:04.523Z,9.63
2018-12-23T19:52:56.151Z,8.90
2018-12-23T19:55:45.946Z,8.97
2018-12-23T19:58:37.258Z,9.50
2018-12-23T20:01:08.956Z,10.47
2018-12-23T20:03:46.627Z,11.13
2018-12-23T20:06:38.935Z,10.33
2018-12-23T20:09:22.563Z,10.30
2018-12-23T20:12:18.539Z,10.67
2018-12-23T20:14:56.015Z,11.10
2018-12-23T20:17:47.306Z,11.30
2018-12-23T20:20:44.860Z,12.30
2018-12-23T20:23:28.405Z,10.50
2018-12-23T20:26:03.074Z,10.90
2018-12-23T20:28:40.809Z,10.63
2018-12-23T20:31:15.406Z,10.97
2018-12-23T20:33:56.318Z,10.83
2018-12-23T20:36:52.126Z,10.20
2018-12-23T20:39:35.231Z,11.23
2018-12-23T20:42:29.955Z,11.20
2018-12-23T20:45:18.014Z,10.37
2018-12-23T20:48:04.858Z,10.43
2018-12-23T20:50:47.919Z,11.63
2018-12-23T20:53:35.018Z,12.00
2018-12-23T20:56:09.421Z,11.57
2018-12-23T20:58:46.948Z,11.40
2018-12-23T21:01:30.630Z,11.20
2018-12-23T21:04:02.346Z,9.93
2018-12-23T21:06:37.180Z,11.13
2018-12-23T21:09:31.609Z,11.13
2018-12-23T21:12:15.556Z,11.10
2018-12-23T21:14:59.178Z,11.00
2018-12-23T21:17:51.686Z,9.90
2018-12-23T21:20:23.414Z,10.10
2018-12-23T21:23:01.406Z,9.57
2018-12-23T21:25:49.734Z,9.70
2018-12-23T21:28:27.269Z,8.40
2018-12-23T21:31:04.892Z,10.73
2018-12-23T21:33:45.654Z,9.67
2018-12-23T21:36:35.686Z,8.13
2018-12-23T21:39:23.621Z,7.60
2018-12-23T21:42:11.718Z,7.83
2018-12-23T21:45:05.746Z,9.50
2018-12-23T21:47:46.847Z,10.30
2018-12-23T21:50:27.557Z,11.30
2018-12-23T21:53:31.511Z,12.53
2018-12-23T21:56:11.545Z,11.57
2018-12-23T21:59:12.277Z,9.97
2018-12-23T22:01:50.074Z,10.30
2018-12-23T22:04:30.518Z,11.00
2018-12-23T22:07:32.498Z,8.83
2018-12-23T22:10:22.454Z,8.00
2018-12-23T22:13:24.042Z,7.97
2018-12-23T22:15:52.818Z,6.07
2018-12-23T22:18:21.538Z,5.17
2018-12-23T22:20:50.186Z,6.00
2018-12-23T22:23:18.939Z,4.40
2018-12-23T22:25:47.507Z,5.37
2018-12-23T22:28:16.195Z,3.70
2018-12-23T22:30:44.882Z,5.03
2018-12-23T22:33:13.569Z,3.43
2018-12-23T22:35:42.210Z,3.17
2018-12-23T22:38:10.894Z,2.70
2018-12-23T22:40:39.899Z,2.40
2018-12-23T22:43:08.547Z,2.97
2018-12-23T22:45:37.145Z,2.93
2018-12-23T22:48:05.706Z,2.50
2018-12-23T22:50:34.392Z,2.00
2018-12-23T22:53:03.039Z,1.77
2018-12-23T22:55:31.730Z,2.00
2018-12-23T22:58:00.389Z,1.30
2018-12-23T23:00:30.839Z,1.60
2018-12-23T23:02:59.407Z,2.20
2018-12-23T23:05:28.702Z,1.77
2018-12-23T23:07:57.347Z,1.93
2018-12-23T23:10:25.992Z,1.30
2018-12-23T23:12:55.058Z,1.70
2018-12-23T23:15:23.715Z,1.70
2018-12-23T23:17:52.394Z,1.60
2018-12-23T23:20:21.078Z,1.10
2018-12-23T23:22:49.717Z,1.97
2018-12-23T23:25:18.328Z,1.77
2018-12-23T23:27:47.278Z,1.80
2018-12-23T23:30:15.955Z,2.20
2018-12-23T23:32:44.599Z,2.70
2018-12-23T23:35:13.242Z,2.20
2018-12-23T23:37:41.926Z,1.90
2018-12-23T23:40:10.570Z,2.90
2018-12-23T23:42:39.258Z,4.47
2018-12-23T23:45:07.893Z,4.17
2018-12-23T23:47:36.583Z,4.73
2018-12-23T23:50:05.905Z,4.20
2018-12-23T23:52:34.845Z,4.13
2018-12-23T23:55:03.411Z,3.60
2018-12-23T23:57:32.099Z,3.30
